sensor_id;sensor_type;location;lat;lon;timestamp;P1;durP1;ratioP1;P2;durP2;ratioP2
14066;SDS011;7108;42.684;23.350;2023-08-17T00:02:05;122.97;;;66.30;;
14066;SDS011;7108;42.684;23.350;2023-08-17T00:04:30;124.23;;;66.80;;
14066;SDS011;7108;42.684;23.350;2023-08-17T00:06:55;129.23;;;66.20;;
14066;SDS011;7108;42.684;23.350;2023-08-17T00:09:21;128.00;;;68.20;;
14066;SDS011;7108;42.684;23.350;2023-08-17T00:11:47;132.63;;;66.00;;
14066;SDS011;7108;42.684;23.350;2023-08-17T00:14:13;124.20;;;67.60;;
14066;SDS011;7108;42.684;23.350;2023-08-17T00:16:38;138.27;;;65.30;;
14066;SDS011;7108;42.684;23.350;2023-08-17T00:19:04;122.97;;;66.67;;
14066;SDS011;7108;42.684;23.350;2023-08-17T00:21:29;136.17;;;66.53;;
14066;SDS011;7108;42.684;23.350;2023-08-17T00:23:54;144.27;;;68.13;;
14066;SDS011;7108;42.684;23.350;2023-08-17T00:26:21;125.10;;;65.73;;
14066;SDS011;7108;42.684;23.350;2023-08-17T00:28:46;137.23;;;68.17;;
14066;SDS011;7108;42.684;23.350;2023-08-17T00:31:12;116.57;;;65.00;;
14066;SDS011;7108;42.684;23.350;2023-08-17T00:33:37;132.40;;;67.20;;
14066;SDS011;7108;42.684;23.350;2023-08-17T00:36:03;130.40;;;66.90;;
14066;SDS011;7108;42.684;23.350;2023-08-17T00:38:28;147.37;;;68.93;;
14066;SDS011;7108;42.684;23.350;2023-08-17T00:40:54;126.10;;;65.73;;
14066;SDS011;7108;42.684;23.350;2023-08-17T00:43:20;136.63;;;68.20;;
14066;SDS011;7108;42.684;23.350;2023-08-17T00:45:46;139.00;;;67.23;;
14066;SDS011;7108;42.684;23.350;2023-08-17T00:48:12;125.27;;;67.13;;
14066;SDS011;7108;42.684;23.350;2023-08-17T00:50:38;132.87;;;66.73;;
14066;SDS011;7108;42.684;23.350;2023-08-17T00:53:04;122.80;;;67.20;;
14066;SDS011;7108;42.684;23.350;2023-08-17T00:55:30;143.37;;;68.00;;
14066;SDS011;7108;42.684;23.350;2023-08-17T00:57:57;148.67;;;71.00;;
14066;SDS011;7108;42.684;23.350;2023-08-17T01:00:23;135.10;;;67.27;;
14066;SDS011;7108;42.684;23.350;2023-08-17T01:02:51;131.20;;;68.03;;
14066;SDS011;7108;42.684;23.350;2023-08-17T01:05:17;129.80;;;66.07;;
14066;SDS011;7108;42.684;23.350;2023-08-17T01:07:42;121.73;;;66.00;;
14066;SDS011;7108;42.684;23.350;2023-08-17T01:10:08;114.33;;;64.57;;
14066;SDS011;7108;42.684;23.350;2023-08-17T01:12:38;143.80;;;67.97;;
14066;SDS011;7108;42.684;23.350;2023-08-17T01:15:24;111.63;;;63.80;;
14066;SDS011;7108;42.684;23.350;2023-08-17T01:18:09;149.67;;;68.40;;
14066;SDS011;7108;42.684;23.350;2023-08-17T01:20:40;134.97;;;64.60;;
14066;SDS011;7108;42.684;23.350;2023-08-17T01:23:06;118.17;;;64.83;;
14066;SDS011;7108;42.684;23.350;2023-08-17T01:25:32;151.13;;;68.50;;
14066;SDS011;7108;42.684;23.350;2023-08-17T01:28:04;137.93;;;67.50;;
14066;SDS011;7108;42.684;23.350;2023-08-17T01:30:35;149.07;;;67.40;;
14066;SDS011;7108;42.684;23.350;2023-08-17T01:33:08;116.40;;;62.83;;
14066;SDS011;7108;42.684;23.350;2023-08-17T01:35:44;140.23;;;67.03;;
14066;SDS011;7108;42.684;23.350;2023-08-17T01:38:18;131.80;;;66.10;;
14066;SDS011;7108;42.684;23.350;2023-08-17T01:40:46;119.37;;;65.27;;
14066;SDS011;7108;42.684;23.350;2023-08-17T01:43:15;123.60;;;68.13;;
14066;SDS011;7108;42.684;23.350;2023-08-17T01:45:41;143.57;;;66.03;;
14066;SDS011;7108;42.684;23.350;2023-08-17T01:48:07;123.27;;;65.30;;
14066;SDS011;7108;42.684;23.350;2023-08-17T01:50:32;122.70;;;64.23;;
14066;SDS011;7108;42.684;23.350;2023-08-17T01:52:58;135.23;;;67.07;;
14066;SDS011;7108;42.684;23.350;2023-08-17T01:55:23;129.33;;;66.30;;
14066;SDS011;7108;42.684;23.350;2023-08-17T01:57:49;135.87;;;66.40;;
14066;SDS011;7108;42.684;23.350;2023-08-17T02:00:14;128.10;;;67.03;;
14066;SDS011;7108;42.684;23.350;2023-08-17T02:02:40;138.77;;;68.23;;
14066;SDS011;7108;42.684;23.350;2023-08-17T02:05:05;123.90;;;66.73;;
14066;SDS011;7108;42.684;23.350;2023-08-17T02:07:31;147.70;;;66.53;;
14066;SDS011;7108;42.684;23.350;2023-08-17T02:09:57;135.10;;;66.63;;
14066;SDS011;7108;42.684;23.350;2023-08-17T02:12:22;126.57;;;66.63;;
14066;SDS011;7108;42.684;23.350;2023-08-17T02:14:48;122.33;;;66.70;;
14066;SDS011;7108;42.684;23.350;2023-08-17T02:17:13;127.23;;;65.97;;
14066;SDS011;7108;42.684;23.350;2023-08-17T02:19:41;134.30;;;65.70;;
14066;SDS011;7108;42.684;23.350;2023-08-17T02:22:09;123.97;;;64.53;;
14066;SDS011;7108;42.684;23.350;2023-08-17T02:24:35;129.00;;;66.00;;
14066;SDS011;7108;42.684;23.350;2023-08-17T02:27:00;125.17;;;65.70;;
14066;SDS011;7108;42.684;23.350;2023-08-17T02:29:26;136.50;;;66.17;;
14066;SDS011;7108;42.684;23.350;2023-08-17T02:31:51;129.60;;;66.87;;
14066;SDS011;7108;42.684;23.350;2023-08-17T02:34:17;123.97;;;64.93;;
14066;SDS011;7108;42.684;23.350;2023-08-17T02:36:42;126.03;;;65.17;;
14066;SDS011;7108;42.684;23.350;2023-08-17T02:39:07;121.30;;;63.90;;
14066;SDS011;7108;42.684;23.350;2023-08-17T02:41:33;137.03;;;68.77;;
14066;SDS011;7108;42.684;23.350;2023-08-17T02:43:59;142.37;;;67.67;;
14066;SDS011;7108;42.684;23.350;2023-08-17T02:46:25;133.53;;;66.67;;
14066;SDS011;7108;42.684;23.350;2023-08-17T02:48:51;142.60;;;68.47;;
14066;SDS011;7108;42.684;23.350;2023-08-17T02:51:16;119.40;;;65.40;;
14066;SDS011;7108;42.684;23.350;2023-08-17T02:53:41;132.93;;;65.40;;
14066;SDS011;7108;42.684;23.350;2023-08-17T02:56:07;132.90;;;65.13;;
14066;SDS011;7108;42.684;23.350;2023-08-17T02:58:36;148.53;;;66.60;;
14066;SDS011;7108;42.684;23.350;2023-08-17T03:01:05;130.23;;;66.80;;
14066;SDS011;7108;42.684;23.350;2023-08-17T03:03:30;154.30;;;67.97;;
14066;SDS011;7108;42.684;23.350;2023-08-17T03:05:56;123.00;;;66.07;;
14066;SDS011;7108;42.684;23.350;2023-08-17T03:08:21;132.27;;;67.33;;
14066;SDS011;7108;42.684;23.350;2023-08-17T03:10:47;114.13;;;63.93;;
14066;SDS011;7108;42.684;23.350;2023-08-17T03:13:12;116.60;;;65.93;;
14066;SDS011;7108;42.684;23.350;2023-08-17T03:15:37;146.27;;;67.27;;
14066;SDS011;7108;42.684;23.350;2023-08-17T03:18:05;147.53;;;67.13;;
14066;SDS011;7108;42.684;23.350;2023-08-17T03:20:30;159.97;;;71.20;;
14066;SDS011;7108;42.684;23.350;2023-08-17T03:22:56;131.70;;;69.33;;
14066;SDS011;7108;42.684;23.350;2023-08-17T03:25:21;124.07;;;66.30;;
14066;SDS011;7108;42.684;23.350;2023-08-17T03:27:47;119.63;;;65.97;;
14066;SDS011;7108;42.684;23.350;2023-08-17T03:30:12;120.13;;;66.73;;
14066;SDS011;7108;42.684;23.350;2023-08-17T03:32:38;161.50;;;69.93;;
14066;SDS011;7108;42.684;23.350;2023-08-17T03:35:03;130.90;;;68.37;;
14066;SDS011;7108;42.684;23.350;2023-08-17T03:37:29;137.47;;;66.63;;
14066;SDS011;7108;42.684;23.350;2023-08-17T03:39:54;127.97;;;65.93;;
14066;SDS011;7108;42.684;23.350;2023-08-17T03:42:20;130.60;;;69.20;;
14066;SDS011;7108;42.684;23.350;2023-08-17T03:44:45;121.60;;;67.57;;
14066;SDS011;7108;42.684;23.350;2023-08-17T03:47:11;121.83;;;66.93;;
14066;SDS011;7108;42.684;23.350;2023-08-17T03:49:36;137.43;;;66.30;;
14066;SDS011;7108;42.684;23.350;2023-08-17T03:52:02;159.40;;;71.30;;
14066;SDS011;7108;42.684;23.350;2023-08-17T03:54:27;131.63;;;69.07;;
14066;SDS011;7108;42.684;23.350;2023-08-17T03:56:53;127.33;;;67.47;;
14066;SDS011;7108;42.684;23.350;2023-08-17T03:59:18;136.20;;;70.50;;
14066;SDS011;7108;42.684;23.350;2023-08-17T04:01:43;133.33;;;68.03;;
14066;SDS011;7108;42.684;23.350;2023-08-17T04:04:09;132.33;;;68.47;;
14066;SDS011;7108;42.684;23.350;2023-08-17T04:06:34;144.70;;;69.23;;
14066;SDS011;7108;42.684;23.350;2023-08-17T04:09:01;135.63;;;66.47;;
14066;SDS011;7108;42.684;23.350;2023-08-17T04:11:26;138.17;;;70.10;;
14066;SDS011;7108;42.684;23.350;2023-08-17T04:13:51;117.33;;;65.10;;
14066;SDS011;7108;42.684;23.350;2023-08-17T04:16:18;119.67;;;65.23;;
14066;SDS011;7108;42.684;23.350;2023-08-17T04:18:44;134.03;;;67.50;;
14066;SDS011;7108;42.684;23.350;2023-08-17T04:21:09;134.47;;;65.60;;
14066;SDS011;7108;42.684;23.350;2023-08-17T04:23:34;118.57;;;64.70;;
14066;SDS011;7108;42.684;23.350;2023-08-17T04:26:00;142.43;;;68.27;;
14066;SDS011;7108;42.684;23.350;2023-08-17T04:28:25;123.40;;;67.83;;
14066;SDS011;7108;42.684;23.350;2023-08-17T04:30:51;113.80;;;64.90;;
14066;SDS011;7108;42.684;23.350;2023-08-17T04:33:16;119.10;;;65.40;;
14066;SDS011;7108;42.684;23.350;2023-08-17T04:35:41;152.10;;;68.77;;
14066;SDS011;7108;42.684;23.350;2023-08-17T04:38:07;139.17;;;67.60;;
14066;SDS011;7108;42.684;23.350;2023-08-17T04:40:32;152.27;;;66.93;;
14066;SDS011;7108;42.684;23.350;2023-08-17T04:42:58;122.00;;;65.97;;
14066;SDS011;7108;42.684;23.350;2023-08-17T04:45:24;122.47;;;65.67;;
14066;SDS011;7108;42.684;23.350;2023-08-17T04:47:49;122.80;;;66.63;;
14066;SDS011;7108;42.684;23.350;2023-08-17T04:50:15;119.03;;;66.43;;
14066;SDS011;7108;42.684;23.350;2023-08-17T04:52:41;146.30;;;68.57;;
14066;SDS011;7108;42.684;23.350;2023-08-17T04:55:08;138.63;;;69.17;;
14066;SDS011;7108;42.684;23.350;2023-08-17T04:57:34;147.60;;;66.83;;
14066;SDS011;7108;42.684;23.350;2023-08-17T04:59:59;138.90;;;68.43;;
14066;SDS011;7108;42.684;23.350;2023-08-17T05:02:25;129.03;;;67.53;;
14066;SDS011;7108;42.684;23.350;2023-08-17T05:04:50;117.33;;;64.80;;
14066;SDS011;7108;42.684;23.350;2023-08-17T05:07:15;132.23;;;68.17;;
14066;SDS011;7108;42.684;23.350;2023-08-17T05:09:41;149.00;;;68.77;;
14066;SDS011;7108;42.684;23.350;2023-08-17T05:12:06;141.80;;;68.37;;
14066;SDS011;7108;42.684;23.350;2023-08-17T05:14:32;147.50;;;68.03;;
14066;SDS011;7108;42.684;23.350;2023-08-17T05:16:57;119.80;;;64.83;;
14066;SDS011;7108;42.684;23.350;2023-08-17T05:19:23;122.20;;;64.13;;
14066;SDS011;7108;42.684;23.350;2023-08-17T05:21:48;128.77;;;65.20;;
14066;SDS011;7108;42.684;23.350;2023-08-17T05:24:15;131.87;;;66.90;;
14066;SDS011;7108;42.684;23.350;2023-08-17T05:26:41;158.23;;;66.13;;
14066;SDS011;7108;42.684;23.350;2023-08-17T05:29:06;122.33;;;63.30;;
14066;SDS011;7108;42.684;23.350;2023-08-17T05:31:31;140.63;;;67.60;;
14066;SDS011;7108;42.684;23.350;2023-08-17T05:33:57;121.83;;;63.93;;
14066;SDS011;7108;42.684;23.350;2023-08-17T05:36:22;122.57;;;64.73;;
14066;SDS011;7108;42.684;23.350;2023-08-17T05:38:48;119.60;;;63.50;;
14066;SDS011;7108;42.684;23.350;2023-08-17T05:41:13;125.70;;;65.57;;
14066;SDS011;7108;42.684;23.350;2023-08-17T05:43:39;143.93;;;63.93;;
14066;SDS011;7108;42.684;23.350;2023-08-17T05:46:04;131.63;;;65.47;;
14066;SDS011;7108;42.684;23.350;2023-08-17T05:48:29;132.20;;;64.37;;
14066;SDS011;7108;42.684;23.350;2023-08-17T05:50:55;115.47;;;62.97;;
14066;SDS011;7108;42.684;23.350;2023-08-17T05:53:21;120.10;;;63.27;;
14066;SDS011;7108;42.684;23.350;2023-08-17T05:55:47;134.27;;;66.23;;
14066;SDS011;7108;42.684;23.350;2023-08-17T05:58:12;119.47;;;65.07;;
14066;SDS011;7108;42.684;23.350;2023-08-17T06:00:38;149.27;;;68.17;;
14066;SDS011;7108;42.684;23.350;2023-08-17T06:03:04;122.20;;;65.60;;
14066;SDS011;7108;42.684;23.350;2023-08-17T06:05:29;129.93;;;66.30;;
14066;SDS011;7108;42.684;23.350;2023-08-17T06:07:55;124.77;;;65.40;;
14066;SDS011;7108;42.684;23.350;2023-08-17T06:10:21;121.17;;;62.27;;
14066;SDS011;7108;42.684;23.350;2023-08-17T06:12:54;129.73;;;65.70;;
14066;SDS011;7108;42.684;23.350;2023-08-17T06:15:20;132.17;;;66.73;;
14066;SDS011;7108;42.684;23.350;2023-08-17T06:17:45;151.87;;;65.33;;
14066;SDS011;7108;42.684;23.350;2023-08-17T06:20:12;130.57;;;64.67;;
14066;SDS011;7108;42.684;23.350;2023-08-17T06:22:38;149.63;;;65.27;;
14066;SDS011;7108;42.684;23.350;2023-08-17T06:25:04;121.47;;;61.53;;
14066;SDS011;7108;42.684;23.350;2023-08-17T06:27:31;135.43;;;64.37;;
14066;SDS011;7108;42.684;23.350;2023-08-17T06:29:56;127.60;;;63.20;;
14066;SDS011;7108;42.684;23.350;2023-08-17T06:32:22;122.73;;;63.60;;
14066;SDS011;7108;42.684;23.350;2023-08-17T06:34:47;133.17;;;64.17;;
14066;SDS011;7108;42.684;23.350;2023-08-17T06:37:13;125.40;;;62.27;;
14066;SDS011;7108;42.684;23.350;2023-08-17T06:39:38;127.63;;;64.00;;
14066;SDS011;7108;42.684;23.350;2023-08-17T06:42:04;123.17;;;63.60;;
14066;SDS011;7108;42.684;23.350;2023-08-17T06:44:29;120.90;;;62.10;;
14066;SDS011;7108;42.684;23.350;2023-08-17T06:46:56;120.00;;;61.43;;
14066;SDS011;7108;42.684;23.350;2023-08-17T06:49:21;131.80;;;64.93;;
14066;SDS011;7108;42.684;23.350;2023-08-17T06:51:47;132.73;;;64.30;;
14066;SDS011;7108;42.684;23.350;2023-08-17T06:54:13;124.53;;;63.70;;
14066;SDS011;7108;42.684;23.350;2023-08-17T06:56:38;136.03;;;64.50;;
14066;SDS011;7108;42.684;23.350;2023-08-17T06:59:04;114.73;;;61.67;;
14066;SDS011;7108;42.684;23.350;2023-08-17T07:01:29;119.23;;;65.30;;
14066;SDS011;7108;42.684;23.350;2023-08-17T07:03:55;115.73;;;63.40;;
14066;SDS011;7108;42.684;23.350;2023-08-17T07:06:22;127.30;;;65.00;;
14066;SDS011;7108;42.684;23.350;2023-08-17T07:08:47;139.30;;;65.87;;
14066;SDS011;7108;42.684;23.350;2023-08-17T07:11:13;131.67;;;64.63;;
14066;SDS011;7108;42.684;23.350;2023-08-17T07:13:38;141.23;;;63.80;;
14066;SDS011;7108;42.684;23.350;2023-08-17T07:16:03;120.17;;;63.60;;
14066;SDS011;7108;42.684;23.350;2023-08-17T07:18:29;124.23;;;64.97;;
14066;SDS011;7108;42.684;23.350;2023-08-17T07:20:54;129.23;;;63.97;;
14066;SDS011;7108;42.684;23.350;2023-08-17T07:23:20;126.07;;;63.83;;
14066;SDS011;7108;42.684;23.350;2023-08-17T07:25:45;147.97;;;64.77;;
14066;SDS011;7108;42.684;23.350;2023-08-17T07:28:10;132.23;;;64.20;;
14066;SDS011;7108;42.684;23.350;2023-08-17T07:30:36;140.20;;;64.03;;
14066;SDS011;7108;42.684;23.350;2023-08-17T07:33:01;117.50;;;61.63;;
14066;SDS011;7108;42.684;23.350;2023-08-17T07:35:27;124.20;;;63.43;;
14066;SDS011;7108;42.684;23.350;2023-08-17T07:37:52;132.57;;;64.10;;
14066;SDS011;7108;42.684;23.350;2023-08-17T07:40:18;125.93;;;64.10;;
14066;SDS011;7108;42.684;23.350;2023-08-17T07:42:44;127.47;;;64.10;;
14066;SDS011;7108;42.684;23.350;2023-08-17T07:45:10;119.10;;;62.13;;
14066;SDS011;7108;42.684;23.350;2023-08-17T07:47:36;134.63;;;64.03;;
14066;SDS011;7108;42.684;23.350;2023-08-17T07:50:02;117.60;;;63.63;;
14066;SDS011;7108;42.684;23.350;2023-08-17T07:52:31;116.97;;;61.10;;
14066;SDS011;7108;42.684;23.350;2023-08-17T07:54:57;134.77;;;63.00;;
14066;SDS011;7108;42.684;23.350;2023-08-17T07:57:22;116.43;;;62.53;;
14066;SDS011;7108;42.684;23.350;2023-08-17T07:59:47;166.90;;;68.67;;
14066;SDS011;7108;42.684;23.350;2023-08-17T08:02:13;130.07;;;65.10;;
14066;SDS011;7108;42.684;23.350;2023-08-17T08:04:39;113.70;;;63.47;;
14066;SDS011;7108;42.684;23.350;2023-08-17T08:07:04;117.83;;;61.73;;
14066;SDS011;7108;42.684;23.350;2023-08-17T08:09:31;123.17;;;63.00;;
14066;SDS011;7108;42.684;23.350;2023-08-17T08:11:56;124.37;;;63.23;;
14066;SDS011;7108;42.684;23.350;2023-08-17T08:14:21;129.73;;;64.70;;
14066;SDS011;7108;42.684;23.350;2023-08-17T08:16:47;158.67;;;65.43;;
14066;SDS011;7108;42.684;23.350;2023-08-17T08:19:12;121.30;;;61.37;;
14066;SDS011;7108;42.684;23.350;2023-08-17T08:21:38;140.17;;;63.83;;
14066;SDS011;7108;42.684;23.350;2023-08-17T08:24:03;117.40;;;61.83;;
14066;SDS011;7108;42.684;23.350;2023-08-17T08:26:29;122.60;;;61.03;;
14066;SDS011;7108;42.684;23.350;2023-08-17T08:28:54;124.40;;;62.67;;
14066;SDS011;7108;42.684;23.350;2023-08-17T08:31:20;128.93;;;61.37;;
14066;SDS011;7108;42.684;23.350;2023-08-17T08:33:45;142.90;;;63.73;;
14066;SDS011;7108;42.684;23.350;2023-08-17T08:36:11;115.33;;;61.20;;
14066;SDS011;7108;42.684;23.350;2023-08-17T08:38:36;136.27;;;62.00;;
14066;SDS011;7108;42.684;23.350;2023-08-17T08:41:02;119.97;;;60.97;;
14066;SDS011;7108;42.684;23.350;2023-08-17T08:43:28;127.73;;;63.77;;
14066;SDS011;7108;42.684;23.350;2023-08-17T08:45:54;129.87;;;61.47;;
14066;SDS011;7108;42.684;23.350;2023-08-17T08:48:20;132.87;;;63.60;;
14066;SDS011;7108;42.684;23.350;2023-08-17T08:50:48;131.07;;;61.00;;
14066;SDS011;7108;42.684;23.350;2023-08-17T08:53:15;121.07;;;61.47;;
14066;SDS011;7108;42.684;23.350;2023-08-17T08:55:47;135.27;;;61.47;;
14066;SDS011;7108;42.684;23.350;2023-08-17T08:58:18;122.63;;;61.63;;
14066;SDS011;7108;42.684;23.350;2023-08-17T09:00:45;138.70;;;62.93;;
14066;SDS011;7108;42.684;23.350;2023-08-17T09:03:12;118.90;;;61.67;;
14066;SDS011;7108;42.684;23.350;2023-08-17T09:05:38;141.07;;;62.47;;
14066;SDS011;7108;42.684;23.350;2023-08-17T09:08:08;138.63;;;63.23;;
14066;SDS011;7108;42.684;23.350;2023-08-17T09:10:34;124.93;;;61.23;;
14066;SDS011;7108;42.684;23.350;2023-08-17T09:13:00;125.37;;;61.07;;
14066;SDS011;7108;42.684;23.350;2023-08-17T09:15:25;130.90;;;62.53;;
14066;SDS011;7108;42.684;23.350;2023-08-17T09:17:51;123.20;;;60.53;;
14066;SDS011;7108;42.684;23.350;2023-08-17T09:23:06;133.20;;;67.60;;
14066;SDS011;7108;42.684;23.350;2023-08-17T09:25:38;143.53;;;63.47;;
14066;SDS011;7108;42.684;23.350;2023-08-17T09:28:08;133.80;;;63.60;;
14066;SDS011;7108;42.684;23.350;2023-08-17T09:30:52;137.33;;;63.80;;
14066;SDS011;7108;42.684;23.350;2023-08-17T09:33:18;115.80;;;60.10;;
14066;SDS011;7108;42.684;23.350;2023-08-17T09:35:51;134.37;;;61.53;;
14066;SDS011;7108;42.684;23.350;2023-08-17T09:38:18;110.93;;;59.77;;
14066;SDS011;7108;42.684;23.350;2023-08-17T09:40:44;133.90;;;62.20;;
14066;SDS011;7108;42.684;23.350;2023-08-17T09:43:10;114.93;;;60.30;;
14066;SDS011;7108;42.684;23.350;2023-08-17T09:45:39;134.90;;;62.10;;
14066;SDS011;7108;42.684;23.350;2023-08-17T09:48:07;133.87;;;61.90;;
14066;SDS011;7108;42.684;23.350;2023-08-17T09:50:33;130.80;;;62.50;;
14066;SDS011;7108;42.684;23.350;2023-08-17T09:53:01;114.53;;;61.33;;
14066;SDS011;7108;42.684;23.350;2023-08-17T09:55:27;134.93;;;62.60;;
14066;SDS011;7108;42.684;23.350;2023-08-17T09:57:55;123.47;;;61.57;;
14066;SDS011;7108;42.684;23.350;2023-08-17T10:00:21;122.00;;;60.67;;
14066;SDS011;7108;42.684;23.350;2023-08-17T10:02:49;131.00;;;62.33;;
14066;SDS011;7108;42.684;23.350;2023-08-17T10:05:18;115.60;;;59.97;;
14066;SDS011;7108;42.684;23.350;2023-08-17T10:07:49;131.50;;;60.13;;
14066;SDS011;7108;42.684;23.350;2023-08-17T10:10:26;129.60;;;61.60;;
14066;SDS011;7108;42.684;23.350;2023-08-17T10:15:37;136.23;;;61.43;;
14066;SDS011;7108;42.684;23.350;2023-08-17T10:18:15;132.63;;;61.97;;
14066;SDS011;7108;42.684;23.350;2023-08-17T10:20:49;132.20;;;60.90;;
14066;SDS011;7108;42.684;23.350;2023-08-17T10:23:25;128.90;;;62.13;;
14066;SDS011;7108;42.684;23.350;2023-08-17T10:25:52;137.97;;;63.07;;
14066;SDS011;7108;42.684;23.350;2023-08-17T10:28:18;112.47;;;60.77;;
14066;SDS011;7108;42.684;23.350;2023-08-17T10:30:45;135.17;;;62.90;;
14066;SDS011;7108;42.684;23.350;2023-08-17T10:33:11;111.63;;;59.53;;
14066;SDS011;7108;42.684;23.350;2023-08-17T10:35:37;128.63;;;62.47;;
14066;SDS011;7108;42.684;23.350;2023-08-17T10:38:04;131.60;;;62.87;;
14066;SDS011;7108;42.684;23.350;2023-08-17T10:40:37;124.37;;;61.23;;
14066;SDS011;7108;42.684;23.350;2023-08-17T10:43:04;128.03;;;62.80;;
14066;SDS011;7108;42.684;23.350;2023-08-17T10:45:31;124.37;;;61.80;;
14066;SDS011;7108;42.684;23.350;2023-08-17T10:50:33;122.60;;;61.50;;
14066;SDS011;7108;42.684;23.350;2023-08-17T10:53:03;125.23;;;62.90;;
14066;SDS011;7108;42.684;23.350;2023-08-17T10:55:37;120.23;;;62.23;;
14066;SDS011;7108;42.684;23.350;2023-08-17T10:58:06;129.47;;;63.73;;
14066;SDS011;7108;42.684;23.350;2023-08-17T11:00:40;131.20;;;64.20;;
14066;SDS011;7108;42.684;23.350;2023-08-17T11:03:08;125.47;;;63.03;;
14066;SDS011;7108;42.684;23.350;2023-08-17T11:05:45;128.47;;;63.47;;
14066;SDS011;7108;42.684;23.350;2023-08-17T11:08:31;115.37;;;61.03;;
14066;SDS011;7108;42.684;23.350;2023-08-17T11:13:36;129.87;;;64.27;;
14066;SDS011;7108;42.684;23.350;2023-08-17T11:16:09;131.13;;;64.17;;
14066;SDS011;7108;42.684;23.350;2023-08-17T11:18:36;127.20;;;62.87;;
14066;SDS011;7108;42.684;23.350;2023-08-17T11:21:02;128.87;;;63.00;;
14066;SDS011;7108;42.684;23.350;2023-08-17T11:23:29;117.90;;;63.03;;
14066;SDS011;7108;42.684;23.350;2023-08-17T11:25:56;114.13;;;62.23;;
14066;SDS011;7108;42.684;23.350;2023-08-17T11:28:22;116.17;;;62.57;;
14066;SDS011;7108;42.684;23.350;2023-08-17T11:30:58;144.00;;;65.30;;
14066;SDS011;7108;42.684;23.350;2023-08-17T11:33:28;117.63;;;62.47;;
14066;SDS011;7108;42.684;23.350;2023-08-17T11:35:58;132.27;;;62.47;;
14066;SDS011;7108;42.684;23.350;2023-08-17T11:38:25;112.77;;;61.30;;
14066;SDS011;7108;42.684;23.350;2023-08-17T11:40:51;140.63;;;64.63;;
14066;SDS011;7108;42.684;23.350;2023-08-17T11:43:17;118.60;;;61.50;;
14066;SDS011;7108;42.684;23.350;2023-08-17T11:45:43;153.50;;;64.97;;
14066;SDS011;7108;42.684;23.350;2023-08-17T11:48:09;117.10;;;62.13;;
14066;SDS011;7108;42.684;23.350;2023-08-17T11:50:35;131.77;;;64.03;;
14066;SDS011;7108;42.684;23.350;2023-08-17T11:53:00;128.10;;;63.60;;
14066;SDS011;7108;42.684;23.350;2023-08-17T11:55:26;127.37;;;64.57;;
14066;SDS011;7108;42.684;23.350;2023-08-17T11:57:52;141.90;;;64.87;;
14066;SDS011;7108;42.684;23.350;2023-08-17T12:00:21;120.57;;;62.67;;
14066;SDS011;7108;42.684;23.350;2023-08-17T12:02:47;142.13;;;64.50;;
14066;SDS011;7108;42.684;23.350;2023-08-17T12:05:18;115.90;;;62.03;;
14066;SDS011;7108;42.684;23.350;2023-08-17T12:07:44;147.67;;;64.73;;
14066;SDS011;7108;42.684;23.350;2023-08-17T12:10:10;133.57;;;64.63;;
14066;SDS011;7108;42.684;23.350;2023-08-17T12:12:36;128.30;;;63.23;;
14066;SDS011;7108;42.684;23.350;2023-08-17T12:15:03;125.47;;;63.43;;
14066;SDS011;7108;42.684;23.350;2023-08-17T12:17:29;122.57;;;64.13;;
14066;SDS011;7108;42.684;23.350;2023-08-17T12:19:54;138.13;;;64.63;;
14066;SDS011;7108;42.684;23.350;2023-08-17T12:22:22;117.77;;;62.27;;
14066;SDS011;7108;42.684;23.350;2023-08-17T12:24:49;174.77;;;68.03;;
14066;SDS011;7108;42.684;23.350;2023-08-17T12:27:15;162.87;;;69.10;;
14066;SDS011;7108;42.684;23.350;2023-08-17T12:29:50;151.33;;;67.20;;
14066;SDS011;7108;42.684;23.350;2023-08-17T12:32:17;149.93;;;66.80;;
14066;SDS011;7108;42.684;23.350;2023-08-17T12:34:44;184.03;;;70.70;;
14066;SDS011;7108;42.684;23.350;2023-08-17T12:37:11;150.17;;;67.63;;
14066;SDS011;7108;42.684;23.350;2023-08-17T12:39:37;162.43;;;68.27;;
14066;SDS011;7108;42.684;23.350;2023-08-17T12:42:04;165.13;;;70.50;;
14066;SDS011;7108;42.684;23.350;2023-08-17T12:44:33;155.40;;;68.43;;
14066;SDS011;7108;42.684;23.350;2023-08-17T12:46:58;145.57;;;66.87;;
14066;SDS011;7108;42.684;23.350;2023-08-17T12:49:24;143.10;;;69.17;;
14066;SDS011;7108;42.684;23.350;2023-08-17T12:51:49;159.80;;;67.73;;
14066;SDS011;7108;42.684;23.350;2023-08-17T12:54:15;160.97;;;70.27;;
14066;SDS011;7108;42.684;23.350;2023-08-17T12:56:40;174.10;;;70.73;;
14066;SDS011;7108;42.684;23.350;2023-08-17T12:59:06;159.07;;;68.33;;
14066;SDS011;7108;42.684;23.350;2023-08-17T13:01:31;148.57;;;67.50;;
14066;SDS011;7108;42.684;23.350;2023-08-17T13:03:57;152.70;;;67.50;;
14066;SDS011;7108;42.684;23.350;2023-08-17T13:06:25;142.93;;;65.33;;
14066;SDS011;7108;42.684;23.350;2023-08-17T13:08:50;168.43;;;67.07;;
14066;SDS011;7108;42.684;23.350;2023-08-17T13:11:16;161.87;;;69.13;;
14066;SDS011;7108;42.684;23.350;2023-08-17T13:13:41;176.17;;;68.43;;
14066;SDS011;7108;42.684;23.350;2023-08-17T13:16:07;155.10;;;67.33;;
14066;SDS011;7108;42.684;23.350;2023-08-17T13:18:32;149.13;;;66.50;;
14066;SDS011;7108;42.684;23.350;2023-08-17T13:20:58;176.13;;;70.07;;
14066;SDS011;7108;42.684;23.350;2023-08-17T13:23:23;147.87;;;65.03;;
14066;SDS011;7108;42.684;23.350;2023-08-17T13:25:48;192.87;;;71.33;;
14066;SDS011;7108;42.684;23.350;2023-08-17T13:28:14;154.50;;;67.13;;
14066;SDS011;7108;42.684;23.350;2023-08-17T13:30:39;172.90;;;68.57;;
14066;SDS011;7108;42.684;23.350;2023-08-17T13:33:05;165.23;;;68.80;;
14066;SDS011;7108;42.684;23.350;2023-08-17T13:35:33;159.73;;;66.83;;
14066;SDS011;7108;42.684;23.350;2023-08-17T13:37:59;145.70;;;65.33;;
14066;SDS011;7108;42.684;23.350;2023-08-17T13:40:27;149.70;;;66.60;;
14066;SDS011;7108;42.684;23.350;2023-08-17T13:42:53;165.63;;;66.77;;
14066;SDS011;7108;42.684;23.350;2023-08-17T13:45:19;170.20;;;69.70;;
14066;SDS011;7108;42.684;23.350;2023-08-17T13:47:44;183.17;;;69.63;;
14066;SDS011;7108;42.684;23.350;2023-08-17T13:50:09;153.33;;;66.27;;
14066;SDS011;7108;42.684;23.350;2023-08-17T13:52:35;157.50;;;68.57;;
14066;SDS011;7108;42.684;23.350;2023-08-17T13:55:00;152.70;;;67.37;;
14066;SDS011;7108;42.684;23.350;2023-08-17T13:57:26;150.83;;;67.93;;
14066;SDS011;7108;42.684;23.350;2023-08-17T13:59:51;189.47;;;71.43;;
14066;SDS011;7108;42.684;23.350;2023-08-17T14:02:18;165.63;;;68.83;;
14066;SDS011;7108;42.684;23.350;2023-08-17T14:04:44;180.23;;;69.40;;
14066;SDS011;7108;42.684;23.350;2023-08-17T14:07:09;164.23;;;70.13;;
14066;SDS011;7108;42.684;23.350;2023-08-17T14:09:35;148.03;;;67.30;;
14066;SDS011;7108;42.684;23.350;2023-08-17T14:12:00;155.43;;;67.10;;
14066;SDS011;7108;42.684;23.350;2023-08-17T14:14:26;155.60;;;67.17;;
14066;SDS011;7108;42.684;23.350;2023-08-17T14:16:52;173.33;;;67.70;;